sensor_id;sensor_type;location;lat;lon;timestamp;temperature;humidity
5689;DHT22;2869;50.432;8.680;2023-02-28T00:00:25;0.20;99.90
5689;DHT22;2869;50.432;8.680;2023-02-28T00:02:54;0.20;99.90
5689;DHT22;2869;50.432;8.680;2023-02-28T00:05:22;0.20;99.90
5689;DHT22;2869;50.432;8.680;2023-02-28T00:07:49;0.20;99.90
5689;DHT22;2869;50.432;8.680;2023-02-28T00:10:17;0.30;99.90
5689;DHT22;2869;50.432;8.680;2023-02-28T00:12:46;0.20;99.90
5689;DHT22;2869;50.432;8.680;2023-02-28T00:15:12;0.20;99.90
5689;DHT22;2869;50.432;8.680;2023-02-28T00:17:39;0.10;99.90
5689;DHT22;2869;50.432;8.680;2023-02-28T00:20:09;0.10;99.90
5689;DHT22;2869;50.432;8.680;2023-02-28T00:22:38;0.00;99.90
5689;DHT22;2869;50.432;8.680;2023-02-28T00:25:06;-0.10;99.90
5689;DHT22;2869;50.432;8.680;2023-02-28T00:27:33;-0.10;99.90
5689;DHT22;2869;50.432;8.680;2023-02-28T00:30:00;-0.20;99.90
5689;DHT22;2869;50.432;8.680;2023-02-28T00:32:27;-0.20;99.90
5689;DHT22;2869;50.432;8.680;2023-02-28T00:34:53;-0.20;99.90
5689;DHT22;2869;50.432;8.680;2023-02-28T00:37:21;-0.30;99.90
5689;DHT22;2869;50.432;8.680;2023-02-28T00:39:48;-0.30;99.90
5689;DHT22;2869;50.432;8.680;2023-02-28T00:42:14;-0.40;99.90
5689;DHT22;2869;50.432;8.680;2023-02-28T00:44:41;-0.40;99.90
5689;DHT22;2869;50.432;8.680;2023-02-28T00:47:08;-0.50;99.90
5689;DHT22;2869;50.432;8.680;2023-02-28T00:49:34;-0.50;99.90
5689;DHT22;2869;50.432;8.680;2023-02-28T00:52:01;-0.60;99.90
5689;DHT22;2869;50.432;8.680;2023-02-28T00:54:29;-0.60;99.90
5689;DHT22;2869;50.432;8.680;2023-02-28T00:56:56;-0.60;99.90
5689;DHT22;2869;50.432;8.680;2023-02-28T00:59:22;-0.60;99.90
5689;DHT22;2869;50.432;8.680;2023-02-28T01:01:49;-0.70;99.90
5689;DHT22;2869;50.432;8.680;2023-02-28T01:04:15;-0.70;99.90
5689;DHT22;2869;50.432;8.680;2023-02-28T01:06:42;-0.70;99.90
5689;DHT22;2869;50.432;8.680;2023-02-28T01:09:09;-0.80;99.90
5689;DHT22;2869;50.432;8.680;2023-02-28T01:11:37;-0.90;99.90
5689;DHT22;2869;50.432;8.680;2023-02-28T01:14:06;-0.90;99.90
5689;DHT22;2869;50.432;8.680;2023-02-28T01:16:32;-0.90;99.90
5689;DHT22;2869;50.432;8.680;2023-02-28T01:18:59;-1.00;99.90
5689;DHT22;2869;50.432;8.680;2023-02-28T01:21:26;-1.00;99.90
5689;DHT22;2869;50.432;8.680;2023-02-28T01:23:52;-1.10;99.90
5689;DHT22;2869;50.432;8.680;2023-02-28T01:26:23;-1.10;99.90
5689;DHT22;2869;50.432;8.680;2023-02-28T01:28:52;-1.20;99.90
5689;DHT22;2869;50.432;8.680;2023-02-28T01:31:20;-1.20;99.90
5689;DHT22;2869;50.432;8.680;2023-02-28T01:33:47;-1.20;99.90
5689;DHT22;2869;50.432;8.680;2023-02-28T01:36:15;-1.20;99.90
5689;DHT22;2869;50.432;8.680;2023-02-28T01:38:42;-1.30;99.90
5689;DHT22;2869;50.432;8.680;2023-02-28T01:41:15;-1.30;99.90
5689;DHT22;2869;50.432;8.680;2023-02-28T01:44:01;-1.30;99.90
5689;DHT22;2869;50.432;8.680;2023-02-28T01:46:33;-1.30;99.90
5689;DHT22;2869;50.432;8.680;2023-02-28T01:49:05;-1.30;99.90
5689;DHT22;2869;50.432;8.680;2023-02-28T01:51:37;-1.40;99.90
5689;DHT22;2869;50.432;8.680;2023-02-28T01:54:09;-1.40;99.90
5689;DHT22;2869;50.432;8.680;2023-02-28T01:56:41;-1.40;99.90
5689;DHT22;2869;50.432;8.680;2023-02-28T01:59:12;-1.40;99.90
5689;DHT22;2869;50.432;8.680;2023-02-28T02:01:40;-1.50;99.90
5689;DHT22;2869;50.432;8.680;2023-02-28T02:04:07;-1.50;99.90
5689;DHT22;2869;50.432;8.680;2023-02-28T02:06:37;-1.60;99.90
5689;DHT22;2869;50.432;8.680;2023-02-28T02:09:03;-1.60;99.90
5689;DHT22;2869;50.432;8.680;2023-02-28T02:11:31;-1.60;99.90
5689;DHT22;2869;50.432;8.680;2023-02-28T02:14:18;-1.60;99.90
5689;DHT22;2869;50.432;8.680;2023-02-28T02:17:05;-1.70;99.90
5689;DHT22;2869;50.432;8.680;2023-02-28T02:22:52;-1.60;99.90
5689;DHT22;2869;50.432;8.680;2023-02-28T02:25:28;-1.60;99.90
5689;DHT22;2869;50.432;8.680;2023-02-28T02:28:05;-1.60;99.90
5689;DHT22;2869;50.432;8.680;2023-02-28T02:36:46;-1.40;99.90
5689;DHT22;2869;50.432;8.680;2023-02-28T02:39:18;-1.40;99.90
5689;DHT22;2869;50.432;8.680;2023-02-28T02:41:48;-1.40;99.90
5689;DHT22;2869;50.432;8.680;2023-02-28T02:44:20;-1.40;99.90
5689;DHT22;2869;50.432;8.680;2023-02-28T02:46:49;-1.40;99.90
5689;DHT22;2869;50.432;8.680;2023-02-28T02:49:22;-1.40;99.90
5689;DHT22;2869;50.432;8.680;2023-02-28T02:51:52;-1.40;99.90
5689;DHT22;2869;50.432;8.680;2023-02-28T02:54:22;-1.40;99.90
5689;DHT22;2869;50.432;8.680;2023-02-28T02:56:55;-1.40;99.90
5689;DHT22;2869;50.432;8.680;2023-02-28T02:59:24;-1.40;99.90
5689;DHT22;2869;50.432;8.680;2023-02-28T03:01:55;-1.40;99.90
5689;DHT22;2869;50.432;8.680;2023-02-28T03:04:25;-1.40;99.90
5689;DHT22;2869;50.432;8.680;2023-02-28T03:06:55;-1.40;99.90
5689;DHT22;2869;50.432;8.680;2023-02-28T03:09:22;-1.50;99.90
5689;DHT22;2869;50.432;8.680;2023-02-28T03:11:49;-1.50;99.90
5689;DHT22;2869;50.432;8.680;2023-02-28T03:14:35;-1.50;99.90
5689;DHT22;2869;50.432;8.680;2023-02-28T03:17:30;-1.60;99.90
5689;DHT22;2869;50.432;8.680;2023-02-28T03:20:07;-1.60;99.90
5689;DHT22;2869;50.432;8.680;2023-02-28T03:22:47;-1.70;99.90
5689;DHT22;2869;50.432;8.680;2023-02-28T03:25:22;-1.70;99.90
5689;DHT22;2869;50.432;8.680;2023-02-28T03:28:00;-1.80;99.90
5689;DHT22;2869;50.432;8.680;2023-02-28T03:30:32;-1.80;99.90
5689;DHT22;2869;50.432;8.680;2023-02-28T03:33:06;-1.90;99.90
5689;DHT22;2869;50.432;8.680;2023-02-28T03:35:36;-2.00;99.90
5689;DHT22;2869;50.432;8.680;2023-02-28T03:38:09;-2.00;99.90
5689;DHT22;2869;50.432;8.680;2023-02-28T03:40:42;-2.10;99.90
5689;DHT22;2869;50.432;8.680;2023-02-28T03:43:13;-2.10;99.90
5689;DHT22;2869;50.432;8.680;2023-02-28T03:45:42;-2.10;99.90
5689;DHT22;2869;50.432;8.680;2023-02-28T03:48:15;-2.10;99.90
5689;DHT22;2869;50.432;8.680;2023-02-28T03:50:47;-2.10;99.90
5689;DHT22;2869;50.432;8.680;2023-02-28T03:53:19;-2.10;99.90
5689;DHT22;2869;50.432;8.680;2023-02-28T03:55:50;-2.10;99.90
5689;DHT22;2869;50.432;8.680;2023-02-28T03:58:24;-2.10;99.90
5689;DHT22;2869;50.432;8.680;2023-02-28T04:00:56;-2.10;99.90
5689;DHT22;2869;50.432;8.680;2023-02-28T04:03:24;-2.00;99.90
5689;DHT22;2869;50.432;8.680;2023-02-28T04:05:52;-2.00;99.90
5689;DHT22;2869;50.432;8.680;2023-02-28T04:08:21;-2.00;99.90
5689;DHT22;2869;50.432;8.680;2023-02-28T04:10:51;-2.00;99.90
5689;DHT22;2869;50.432;8.680;2023-02-28T04:13:19;-2.00;99.90
5689;DHT22;2869;50.432;8.680;2023-02-28T04:15:46;-2.00;99.90
5689;DHT22;2869;50.432;8.680;2023-02-28T04:18:13;-2.10;99.90
5689;DHT22;2869;50.432;8.680;2023-02-28T04:20:39;-2.10;99.90
5689;DHT22;2869;50.432;8.680;2023-02-28T04:23:06;-2.00;99.90
5689;DHT22;2869;50.432;8.680;2023-02-28T04:25:34;-2.10;99.90
5689;DHT22;2869;50.432;8.680;2023-02-28T04:28:00;-2.10;99.90
5689;DHT22;2869;50.432;8.680;2023-02-28T04:30:27;-2.10;99.90
5689;DHT22;2869;50.432;8.680;2023-02-28T04:32:54;-2.10;99.90
5689;DHT22;2869;50.432;8.680;2023-02-28T04:35:21;-2.10;99.90
5689;DHT22;2869;50.432;8.680;2023-02-28T04:37:48;-2.10;99.90
5689;DHT22;2869;50.432;8.680;2023-02-28T04:40:15;-2.10;99.90
5689;DHT22;2869;50.432;8.680;2023-02-28T04:42:43;-2.10;99.90
5689;DHT22;2869;50.432;8.680;2023-02-28T04:45:10;-2.20;99.90
5689;DHT22;2869;50.432;8.680;2023-02-28T04:47:36;-2.20;99.90
5689;DHT22;2869;50.432;8.680;2023-02-28T04:50:03;-2.20;99.90
5689;DHT22;2869;50.432;8.680;2023-02-28T04:52:30;-2.30;99.90
5689;DHT22;2869;50.432;8.680;2023-02-28T04:54:57;-2.30;99.90
5689;DHT22;2869;50.432;8.680;2023-02-28T04:57:23;-2.30;99.90
5689;DHT22;2869;50.432;8.680;2023-02-28T04:59:51;-2.30;99.90
5689;DHT22;2869;50.432;8.680;2023-02-28T05:02:18;-2.50;99.90
5689;DHT22;2869;50.432;8.680;2023-02-28T05:04:46;-2.40;99.90
5689;DHT22;2869;50.432;8.680;2023-02-28T05:07:13;-2.40;99.90
5689;DHT22;2869;50.432;8.680;2023-02-28T05:09:39;-2.40;99.90
5689;DHT22;2869;50.432;8.680;2023-02-28T05:12:06;-2.40;99.90
5689;DHT22;2869;50.432;8.680;2023-02-28T05:14:34;-2.40;99.90
5689;DHT22;2869;50.432;8.680;2023-02-28T05:17:01;-2.40;99.90
5689;DHT22;2869;50.432;8.680;2023-02-28T05:19:28;-2.40;99.90
5689;DHT22;2869;50.432;8.680;2023-02-28T05:21:55;-2.40;99.90
5689;DHT22;2869;50.432;8.680;2023-02-28T05:24:22;-2.50;99.90
5689;DHT22;2869;50.432;8.680;2023-02-28T05:26:50;-2.40;99.90
5689;DHT22;2869;50.432;8.680;2023-02-28T05:29:18;-2.40;99.90
5689;DHT22;2869;50.432;8.680;2023-02-28T05:31:44;-2.40;99.90
5689;DHT22;2869;50.432;8.680;2023-02-28T05:34:12;-2.30;99.90
5689;DHT22;2869;50.432;8.680;2023-02-28T05:36:41;-2.40;99.90
5689;DHT22;2869;50.432;8.680;2023-02-28T05:39:08;-2.30;99.90
5689;DHT22;2869;50.432;8.680;2023-02-28T05:41:38;-2.30;99.90
5689;DHT22;2869;50.432;8.680;2023-02-28T05:44:05;-2.30;99.90
5689;DHT22;2869;50.432;8.680;2023-02-28T05:46:32;-2.30;99.90
5689;DHT22;2869;50.432;8.680;2023-02-28T05:48:58;-2.30;99.90
5689;DHT22;2869;50.432;8.680;2023-02-28T05:51:27;-2.30;99.90
5689;DHT22;2869;50.432;8.680;2023-02-28T05:53:54;-2.30;99.90
5689;DHT22;2869;50.432;8.680;2023-02-28T05:56:22;-2.30;99.90
5689;DHT22;2869;50.432;8.680;2023-02-28T05:58:48;-2.30;99.90
5689;DHT22;2869;50.432;8.680;2023-02-28T06:01:37;-2.30;99.90
5689;DHT22;2869;50.432;8.680;2023-02-28T06:04:05;-2.30;99.90
5689;DHT22;2869;50.432;8.680;2023-02-28T06:06:33;-2.20;99.90
5689;DHT22;2869;50.432;8.680;2023-02-28T06:09:02;-2.20;99.90
5689;DHT22;2869;50.432;8.680;2023-02-28T06:11:28;-2.10;99.90
5689;DHT22;2869;50.432;8.680;2023-02-28T06:13:56;-2.00;99.90
5689;DHT22;2869;50.432;8.680;2023-02-28T06:16:25;-2.00;99.90
5689;DHT22;2869;50.432;8.680;2023-02-28T06:18:52;-2.00;99.90
5689;DHT22;2869;50.432;8.680;2023-02-28T06:21:21;-1.90;99.90
5689;DHT22;2869;50.432;8.680;2023-02-28T06:23:49;-1.90;99.90
5689;DHT22;2869;50.432;8.680;2023-02-28T06:26:15;-1.80;99.90
5689;DHT22;2869;50.432;8.680;2023-02-28T06:28:42;-1.80;99.90
5689;DHT22;2869;50.432;8.680;2023-02-28T06:31:11;-1.70;99.90
5689;DHT22;2869;50.432;8.680;2023-02-28T06:33:38;-1.70;99.90
5689;DHT22;2869;50.432;8.680;2023-02-28T06:36:06;-1.60;99.90
5689;DHT22;2869;50.432;8.680;2023-02-28T06:38:34;-1.50;99.90
5689;DHT22;2869;50.432;8.680;2023-02-28T06:41:02;-1.40;99.90
5689;DHT22;2869;50.432;8.680;2023-02-28T06:43:31;-1.00;99.90
5689;DHT22;2869;50.432;8.680;2023-02-28T06:45:59;-0.50;99.90
5689;DHT22;2869;50.432;8.680;2023-02-28T06:48:27;0.00;99.90
5689;DHT22;2869;50.432;8.680;2023-02-28T06:51:01;0.40;99.90
5689;DHT22;2869;50.432;8.680;2023-02-28T06:53:28;0.90;99.90
5689;DHT22;2869;50.432;8.680;2023-02-28T06:55:55;1.30;99.90
5689;DHT22;2869;50.432;8.680;2023-02-28T06:58:23;1.90;99.90
5689;DHT22;2869;50.432;8.680;2023-02-28T07:00:51;2.30;99.90
5689;DHT22;2869;50.432;8.680;2023-02-28T07:03:18;2.50;99.90
5689;DHT22;2869;50.432;8.680;2023-02-28T07:05:45;2.50;99.90
5689;DHT22;2869;50.432;8.680;2023-02-28T07:08:12;2.00;99.90
5689;DHT22;2869;50.432;8.680;2023-02-28T07:10:39;1.60;99.90
5689;DHT22;2869;50.432;8.680;2023-02-28T07:13:06;1.30;99.90
5689;DHT22;2869;50.432;8.680;2023-02-28T07:15:35;1.70;99.90
5689;DHT22;2869;50.432;8.680;2023-02-28T07:18:02;2.10;99.90
5689;DHT22;2869;50.432;8.680;2023-02-28T07:20:29;2.20;99.90
5689;DHT22;2869;50.432;8.680;2023-02-28T07:22:55;2.20;99.90
5689;DHT22;2869;50.432;8.680;2023-02-28T07:25:22;2.70;99.90
5689;DHT22;2869;50.432;8.680;2023-02-28T07:27:49;3.50;99.90
5689;DHT22;2869;50.432;8.680;2023-02-28T07:30:16;3.60;99.90
5689;DHT22;2869;50.432;8.680;2023-02-28T07:32:45;3.10;99.90
5689;DHT22;2869;50.432;8.680;2023-02-28T07:35:12;2.70;99.90
5689;DHT22;2869;50.432;8.680;2023-02-28T07:37:40;2.30;99.90
5689;DHT22;2869;50.432;8.680;2023-02-28T07:40:09;2.10;99.90
5689;DHT22;2869;50.432;8.680;2023-02-28T07:42:38;1.90;99.90
5689;DHT22;2869;50.432;8.680;2023-02-28T07:45:06;1.90;99.90
5689;DHT22;2869;50.432;8.680;2023-02-28T07:47:33;1.70;99.90
5689;DHT22;2869;50.432;8.680;2023-02-28T07:50:01;1.70;99.90
5689;DHT22;2869;50.432;8.680;2023-02-28T07:52:27;1.90;99.90
5689;DHT22;2869;50.432;8.680;2023-02-28T07:54:54;2.30;99.90
5689;DHT22;2869;50.432;8.680;2023-02-28T07:57:22;2.60;99.90
5689;DHT22;2869;50.432;8.680;2023-02-28T07:59:48;2.70;99.90
5689;DHT22;2869;50.432;8.680;2023-02-28T08:02:16;3.00;99.90
5689;DHT22;2869;50.432;8.680;2023-02-28T08:04:43;3.00;99.90
5689;DHT22;2869;50.432;8.680;2023-02-28T08:07:12;2.90;99.90
5689;DHT22;2869;50.432;8.680;2023-02-28T08:09:40;2.70;99.90
5689;DHT22;2869;50.432;8.680;2023-02-28T08:12:07;2.60;99.90
5689;DHT22;2869;50.432;8.680;2023-02-28T08:14:33;2.70;99.90
5689;DHT22;2869;50.432;8.680;2023-02-28T08:17:00;2.70;99.90
5689;DHT22;2869;50.432;8.680;2023-02-28T08:19:27;2.90;99.90
5689;DHT22;2869;50.432;8.680;2023-02-28T08:21:54;3.30;99.90
5689;DHT22;2869;50.432;8.680;2023-02-28T08:24:22;3.60;99.90
5689;DHT22;2869;50.432;8.680;2023-02-28T08:26:48;3.70;99.90
5689;DHT22;2869;50.432;8.680;2023-02-28T08:29:15;3.90;99.90
5689;DHT22;2869;50.432;8.680;2023-02-28T08:31:42;4.00;99.90
5689;DHT22;2869;50.432;8.680;2023-02-28T08:34:11;4.10;99.90
5689;DHT22;2869;50.432;8.680;2023-02-28T08:36:38;4.10;99.90
5689;DHT22;2869;50.432;8.680;2023-02-28T08:39:05;4.00;99.90
5689;DHT22;2869;50.432;8.680;2023-02-28T08:41:35;4.30;99.90
5689;DHT22;2869;50.432;8.680;2023-02-28T08:44:02;4.50;99.90
5689;DHT22;2869;50.432;8.680;2023-02-28T08:46:28;4.70;99.90
5689;DHT22;2869;50.432;8.680;2023-02-28T08:48:56;4.90;99.90
5689;DHT22;2869;50.432;8.680;2023-02-28T08:51:26;5.00;99.90
5689;DHT22;2869;50.432;8.680;2023-02-28T08:53:53;5.20;99.90
5689;DHT22;2869;50.432;8.680;2023-02-28T08:56:21;5.10;99.90
5689;DHT22;2869;50.432;8.680;2023-02-28T08:58:49;4.90;99.90
5689;DHT22;2869;50.432;8.680;2023-02-28T09:01:18;4.60;99.90
5689;DHT22;2869;50.432;8.680;2023-02-28T09:03:46;4.70;99.90
5689;DHT22;2869;50.432;8.680;2023-02-28T09:06:14;4.70;99.90
5689;DHT22;2869;50.432;8.680;2023-02-28T09:08:41;4.70;99.90
5689;DHT22;2869;50.432;8.680;2023-02-28T09:11:09;4.90;99.90
5689;DHT22;2869;50.432;8.680;2023-02-28T09:13:36;4.90;99.90
5689;DHT22;2869;50.432;8.680;2023-02-28T09:16:07;5.00;99.90
5689;DHT22;2869;50.432;8.680;2023-02-28T09:18:35;5.20;99.90
5689;DHT22;2869;50.432;8.680;2023-02-28T09:21:03;5.30;99.90
5689;DHT22;2869;50.432;8.680;2023-02-28T09:23:30;5.30;99.90
5689;DHT22;2869;50.432;8.680;2023-02-28T09:25:57;5.50;99.90
5689;DHT22;2869;50.432;8.680;2023-02-28T09:28:23;5.50;99.90
5689;DHT22;2869;50.432;8.680;2023-02-28T09:30:52;5.70;99.90
5689;DHT22;2869;50.432;8.680;2023-02-28T09:33:21;5.50;99.90
5689;DHT22;2869;50.432;8.680;2023-02-28T09:35:49;5.10;99.90
5689;DHT22;2869;50.432;8.680;2023-02-28T09:38:16;5.00;99.90
5689;DHT22;2869;50.432;8.680;2023-02-28T09:40:48;5.30;99.90
5689;DHT22;2869;50.432;8.680;2023-02-28T09:43:17;5.40;99.90
5689;DHT22;2869;50.432;8.680;2023-02-28T09:45:48;5.50;99.90
5689;DHT22;2869;50.432;8.680;2023-02-28T09:48:18;6.00;99.90
5689;DHT22;2869;50.432;8.680;2023-02-28T09:50:50;6.20;99.90
5689;DHT22;2869;50.432;8.680;2023-02-28T09:53:22;6.20;99.90
5689;DHT22;2869;50.432;8.680;2023-02-28T09:55:55;6.20;99.90
5689;DHT22;2869;50.432;8.680;2023-02-28T09:58:30;6.20;99.90
5689;DHT22;2869;50.432;8.680;2023-02-28T10:01:02;6.30;99.90
5689;DHT22;2869;50.432;8.680;2023-02-28T10:03:32;6.10;99.90
5689;DHT22;2869;50.432;8.680;2023-02-28T10:06:08;5.80;99.90
5689;DHT22;2869;50.432;8.680;2023-02-28T10:08:41;5.40;99.90
5689;DHT22;2869;50.432;8.680;2023-02-28T10:11:12;5.40;99.90
5689;DHT22;2869;50.432;8.680;2023-02-28T10:13:48;5.40;99.90
5689;DHT22;2869;50.432;8.680;2023-02-28T10:16:20;5.50;99.90
5689;DHT22;2869;50.432;8.680;2023-02-28T10:18:50;5.80;99.90
5689;DHT22;2869;50.432;8.680;2023-02-28T10:21:24;6.30;99.90
5689;DHT22;2869;50.432;8.680;2023-02-28T10:23:59;6.30;99.90
5689;DHT22;2869;50.432;8.680;2023-02-28T10:26:29;6.60;99.90
5689;DHT22;2869;50.432;8.680;2023-02-28T10:28:57;6.40;99.90
5689;DHT22;2869;50.432;8.680;2023-02-28T10:31:24;6.40;99.90
5689;DHT22;2869;50.432;8.680;2023-02-28T10:33:50;6.10;99.90
5689;DHT22;2869;50.432;8.680;2023-02-28T10:36:19;5.80;99.90
5689;DHT22;2869;50.432;8.680;2023-02-28T10:38:48;5.70;99.90
5689;DHT22;2869;50.432;8.680;2023-02-28T10:41:17;5.80;99.90
5689;DHT22;2869;50.432;8.680;2023-02-28T10:43:52;5.90;99.90
5689;DHT22;2869;50.432;8.680;2023-02-28T10:46:20;6.30;99.90
5689;DHT22;2869;50.432;8.680;2023-02-28T10:49:00;6.60;99.90
5689;DHT22;2869;50.432;8.680;2023-02-28T10:51:35;6.50;99.90
5689;DHT22;2869;50.432;8.680;2023-02-28T10:54:04;6.20;99.90
5689;DHT22;2869;50.432;8.680;2023-02-28T10:56:32;5.90;99.90
5689;DHT22;2869;50.432;8.680;2023-02-28T10:59:00;5.70;99.90
5689;DHT22;2869;50.432;8.680;2023-02-28T11:01:36;5.40;99.90
5689;DHT22;2869;50.432;8.680;2023-02-28T11:04:03;5.50;99.90
5689;DHT22;2869;50.432;8.680;2023-02-28T11:06:42;6.00;99.90
5689;DHT22;2869;50.432;8.680;2023-02-28T11:09:19;6.40;99.90
5689;DHT22;2869;50.432;8.680;2023-02-28T11:11:49;6.80;99.90
5689;DHT22;2869;50.432;8.680;2023-02-28T11:14:20;7.20;99.90
5689;DHT22;2869;50.432;8.680;2023-02-28T11:16:48;7.60;99.90
5689;DHT22;2869;50.432;8.680;2023-02-28T11:19:18;7.90;99.90
5689;DHT22;2869;50.432;8.680;2023-02-28T11:21:51;7.80;99.90
5689;DHT22;2869;50.432;8.680;2023-02-28T11:24:23;7.10;99.90
5689;DHT22;2869;50.432;8.680;2023-02-28T11:26:51;6.70;99.90
5689;DHT22;2869;50.432;8.680;2023-02-28T11:29:20;6.10;99.90
5689;DHT22;2869;50.432;8.680;2023-02-28T11:32:07;5.80;99.90
5689;DHT22;2869;50.432;8.680;2023-02-28T11:34:38;5.20;99.90
5689;DHT22;2869;50.432;8.680;2023-02-28T11:37:11;5.00;99.90
5689;DHT22;2869;50.432;8.680;2023-02-28T11:39:40;5.00;99.90
5689;DHT22;2869;50.432;8.680;2023-02-28T11:42:34;5.20;99.90
5689;DHT22;2869;50.432;8.680;2023-02-28T11:45:15;5.60;99.90
5689;DHT22;2869;50.432;8.680;2023-02-28T11:47:48;6.10;99.90
5689;DHT22;2869;50.432;8.680;2023-02-28T11:50:30;6.40;99.90
5689;DHT22;2869;50.432;8.680;2023-02-28T11:53:01;6.60;99.90
5689;DHT22;2869;50.432;8.680;2023-02-28T11:55:35;6.80;99.90
5689;DHT22;2869;50.432;8.680;2023-02-28T11:58:26;7.00;99.90
5689;DHT22;2869;50.432;8.680;2023-02-28T12:01:05;6.80;99.90
5689;DHT22;2869;50.432;8.680;2023-02-28T12:03:40;6.50;99.90
5689;DHT22;2869;50.432;8.680;2023-02-28T12:06:16;6.50;99.90
5689;DHT22;2869;50.432;8.680;2023-02-28T12:08:52;6.70;99.90
5689;DHT22;2869;50.432;8.680;2023-02-28T12:11:33;6.70;99.90
5689;DHT22;2869;50.432;8.680;2023-02-28T12:14:21;6.40;99.90
5689;DHT22;2869;50.432;8.680;2023-02-28T12:17:00;6.30;99.90
5689;DHT22;2869;50.432;8.680;2023-02-28T12:19:30;6.20;99.90
5689;DHT22;2869;50.432;8.680;2023-02-28T12:22:27;6.10;99.90
5689;DHT22;2869;50.432;8.680;2023-02-28T12:28:04;6.50;99.90
5689;DHT22;2869;50.432;8.680;2023-02-28T12:30:32;6.10;99.90
5689;DHT22;2869;50.432;8.680;2023-02-28T12:33:04;6.40;99.90
5689;DHT22;2869;50.432;8.680;2023-02-28T12:35:34;6.40;99.90
5689;DHT22;2869;50.432;8.680;2023-02-28T12:38:04;6.50;99.90
5689;DHT22;2869;50.432;8.680;2023-02-28T12:40:40;6.60;99.90
5689;DHT22;2869;50.432;8.680;2023-02-28T12:43:12;6.90;99.90
5689;DHT22;2869;50.432;8.680;2023-02-28T12:45:42;6.70;99.90
5689;DHT22;2869;50.432;8.680;2023-02-28T12:48:13;6.50;99.90
5689;DHT22;2869;50.432;8.680;2023-02-28T12:50:41;6.20;99.90
5689;DHT22;2869;50.432;8.680;2023-02-28T12:53:11;6.10;99.90
5689;DHT22;2869;50.432;8.680;2023-02-28T12:55:45;6.10;99.90
5689;DHT22;2869;50.432;8.680;2023-02-28T12:58:20;6.20;99.90
5689;DHT22;2869;50.432;8.680;2023-02-28T13:01:10;6.40;99.90
5689;DHT22;2869;50.432;8.680;2023-02-28T13:03:57;6.60;99.90
5689;DHT22;2869;50.432;8.680;2023-02-28T13:06:53;6.70;99.90
5689;DHT22;2869;50.432;8.680;2023-02-28T13:09:24;6.80;99.90
5689;DHT22;2869;50.432;8.680;2023-02-28T13:11:52;6.90;99.90
5689;DHT22;2869;50.432;8.680;2023-02-28T13:14:24;7.20;99.90
5689;DHT22;2869;50.432;8.680;2023-02-28T13:17:03;7.20;99.90
5689;DHT22;2869;50.432;8.680;2023-02-28T13:19:38;7.00;99.90
5689;DHT22;2869;50.432;8.680;2023-02-28T13:22:16;6.50;99.90
5689;DHT22;2869;50.432;8.680;2023-02-28T13:24:46;6.30;99.90
5689;DHT22;2869;50.432;8.680;2023-02-28T13:27:24;6.40;99.90
5689;DHT22;2869;50.432;8.680;2023-02-28T13:29:52;6.70;99.90
5689;DHT22;2869;50.432;8.680;2023-02-28T13:32:31;7.10;99.90
5689;DHT22;2869;50.432;8.680;2023-02-28T13:38:13;7.20;99.90
5689;DHT22;2869;50.432;8.680;2023-02-28T13:40:41;7.30;99.90
5689;DHT22;2869;50.432;8.680;2023-02-28T13:43:09;7.10;99.90
5689;DHT22;2869;50.432;8.680;2023-02-28T13:45:37;7.20;99.90
5689;DHT22;2869;50.432;8.680;2023-02-28T13:48:15;7.30;99.90
5689;DHT22;2869;50.432;8.680;2023-02-28T13:50:43;7.10;99.90
5689;DHT22;2869;50.432;8.680;2023-02-28T13:53:30;7.10;99.90
5689;DHT22;2869;50.432;8.680;2023-02-28T13:56:05;7.20;99.90
5689;DHT22;2869;50.432;8.680;2023-02-28T13:58:46;7.30;99.90
5689;DHT22;2869;50.432;8.680;2023-02-28T14:01:34;7.40;99.90
5689;DHT22;2869;50.432;8.680;2023-02-28T14:04:25;7.50;99.90
5689;DHT22;2869;50.432;8.680;2023-02-28T14:06:57;7.40;99.90
5689;DHT22;2869;50.432;8.680;2023-02-28T14:09:28;7.40;99.90
5689;DHT22;2869;50.432;8.680;2023-02-28T14:11:58;7.50;99.90
5689;DHT22;2869;50.432;8.680;2023-02-28T14:14:54;7.40;99.90
5689;DHT22;2869;50.432;8.680;2023-02-28T14:17:24;7.40;99.90
5689;DHT22;2869;50.432;8.680;2023-02-28T14:19:52;7.30;99.90
5689;DHT22;2869;50.432;8.680;2023-02-28T14:22:38;7.40;99.90
5689;DHT22;2869;50.432;8.680;2023-02-28T14:25:18;7.50;99.90
5689;DHT22;2869;50.432;8.680;2023-02-28T14:27:50;7.20;99.90
5689;DHT22;2869;50.432;8.680;2023-02-28T14:30:49;7.20;99.90
5689;DHT22;2869;50.432;8.680;2023-02-28T14:33:25;7.20;99.90
5689;DHT22;2869;50.432;8.680;2023-02-28T14:36:04;7.30;99.90
5689;DHT22;2869;50.432;8.680;2023-02-28T14:38:35;7.30;99.90
5689;DHT22;2869;50.432;8.680;2023-02-28T14:41:05;7.20;99.90
5689;DHT22;2869;50.432;8.680;2023-02-28T14:43:33;7.20;99.90
5689;DHT22;2869;50.432;8.680;2023-02-28T14:46:01;7.10;99.90
5689;DHT22;2869;50.432;8.680;2023-02-28T14:48:29;7.20;99.90
5689;DHT22;2869;50.432;8.680;2023-02-28T14:50:59;7.20;99.90
5689;DHT22;2869;50.432;8.680;2023-02-28T14:53:29;7.10;99.90
5689;DHT22;2869;50.432;8.680;2023-02-28T14:55:56;7.20;99.90
5689;DHT22;2869;50.432;8.680;2023-02-28T14:58:25;7.10;99.90
5689;DHT22;2869;50.432;8.680;2023-02-28T15:00:54;7.20;99.90
5689;DHT22;2869;50.432;8.680;2023-02-28T15:03:22;7.00;99.90
5689;DHT22;2869;50.432;8.680;2023-02-28T15:05:55;6.70;99.90
5689;DHT22;2869;50.432;8.680;2023-02-28T15:08:23;6.60;99.90
5689;DHT22;2869;50.432;8.680;2023-02-28T15:10:55;6.60;99.90
5689;DHT22;2869;50.432;8.680;2023-02-28T15:13:23;6.50;99.90
5689;DHT22;2869;50.432;8.680;2023-02-28T15:15:55;6.40;99.90
5689;DHT22;2869;50.432;8.680;2023-02-28T15:18:27;6.30;99.90
5689;DHT22;2869;50.432;8.680;2023-02-28T15:20:57;6.40;99.90
5689;DHT22;2869;50.432;8.680;2023-02-28T15:23:25;6.40;99.90
5689;DHT22;2869;50.432;8.680;2023-02-28T15:25:52;6.30;99.90
5689;DHT22;2869;50.432;8.680;2023-02-28T15:28:22;6.20;99.90
5689;DHT22;2869;50.432;8.680;2023-02-28T15:30:55;6.10;99.90
5689;DHT22;2869;50.432;8.680;2023-02-28T15:33:23;6.20;99.90
5689;DHT22;2869;50.432;8.680;2023-02-28T15:35:51;6.20;99.90
5689;DHT22;2869;50.432;8.680;2023-02-28T15:38:33;6.20;99.90
5689;DHT22;2869;50.432;8.680;2023-02-28T15:41:01;6.10;99.90
5689;DHT22;2869;50.432;8.680;2023-02-28T15:43:29;6.00;99.90
5689;DHT22;2869;50.432;8.680;2023-02-28T15:45:58;6.00;99.90
5689;DHT22;2869;50.432;8.680;2023-02-28T15:48:28;5.90;99.90
5689;DHT22;2869;50.432;8.680;2023-02-28T15:50:57;5.80;99.90
5689;DHT22;2869;50.432;8.680;2023-02-28T15:53:26;5.80;99.90
5689;DHT22;2869;50.432;8.680;2023-02-28T15:55:59;5.80;99.90
5689;DHT22;2869;50.432;8.680;2023-02-28T15:58:27;5.80;99.90
5689;DHT22;2869;50.432;8.680;2023-02-28T16:01:06;5.80;99.90
5689;DHT22;2869;50.432;8.680;2023-02-28T16:03:39;5.70;99.90
5689;DHT22;2869;50.432;8.680;2023-02-28T16:06:26;5.70;99.90
5689;DHT22;2869;50.432;8.680;2023-02-28T16:08:52;5.60;99.90
5689;DHT22;2869;50.432;8.680;2023-02-28T16:11:21;5.50;99.90
5689;DHT22;2869;50.432;8.680;2023-02-28T16:13:49;5.30;99.90
5689;DHT22;2869;50.432;8.680;2023-02-28T16:16:17;5.30;99.90
5689;DHT22;2869;50.432;8.680;2023-02-28T16:18:44;5.10;99.90
5689;DHT22;2869;50.432;8.680;2023-02-28T16:21:11;5.00;99.90
5689;DHT22;2869;50.432;8.680;2023-02-28T16:23:38;5.00;99.90
5689;DHT22;2869;50.432;8.680;2023-02-28T16:26:05;4.90;99.90
5689;DHT22;2869;50.432;8.680;2023-02-28T16:28:35;4.80;99.90
5689;DHT22;2869;50.432;8.680;2023-02-28T16:31:05;4.80;99.90
5689;DHT22;2869;50.432;8.680;2023-02-28T16:33:33;4.70;99.90
5689;DHT22;2869;50.432;8.680;2023-02-28T16:36:00;4.50;99.90
5689;DHT22;2869;50.432;8.680;2023-02-28T16:38:27;4.50;99.90
5689;DHT22;2869;50.432;8.680;2023-02-28T16:40:56;4.30;99.90
5689;DHT22;2869;50.432;8.680;2023-02-28T16:43:25;4.50;99.90
5689;DHT22;2869;50.432;8.680;2023-02-28T16:45:56;5.30;99.90
5689;DHT22;2869;50.432;8.680;2023-02-28T16:48:24;6.10;99.90